sensor_id;sensor_type;location;lat;lon;timestamp;pressure;altitude;pressure_sealevel;temperature;humidity
56142;BME280;42018;48.588;10.836;2022-12-18T00:00:11;98012.09;;;-6.92;67.56
56142;BME280;42018;48.588;10.836;2022-12-18T00:02:56;98011.16;;;-6.70;67.57
56142;BME280;42018;48.588;10.836;2022-12-18T00:05:49;98013.97;;;-6.94;67.56
56142;BME280;42018;48.588;10.836;2022-12-18T00:08:35;98023.09;;;-6.69;68.49
56142;BME280;42018;48.588;10.836;2022-12-18T00:11:23;98024.44;;;-6.75;67.55
56142;BME280;42018;48.588;10.836;2022-12-18T00:14:10;98037.19;;;-6.73;68.07
56142;BME280;42018;48.588;10.836;2022-12-18T00:16:56;98030.84;;;-7.01;68.16
56142;BME280;42018;48.588;10.836;2022-12-18T00:19:43;98029.41;;;-6.83;69.17
56142;BME280;42018;48.588;10.836;2022-12-18T00:22:28;98040.91;;;-6.98;69.01
56142;BME280;42018;48.588;10.836;2022-12-18T00:25:14;98045.81;;;-6.95;69.04
56142;BME280;42018;48.588;10.836;2022-12-18T00:27:59;98044.19;;;-6.96;69.31
56142;BME280;42018;48.588;10.836;2022-12-18T00:30:44;98045.97;;;-6.96;69.21
56142;BME280;42018;48.588;10.836;2022-12-18T00:33:30;98050.72;;;-6.92;69.06
56142;BME280;42018;48.588;10.836;2022-12-18T00:36:21;98043.41;;;-6.76;68.38
56142;BME280;42018;48.588;10.836;2022-12-18T00:39:07;98047.44;;;-6.94;67.69
56142;BME280;42018;48.588;10.836;2022-12-18T00:41:52;98046.81;;;-7.07;70.12
56142;BME280;42018;48.588;10.836;2022-12-18T00:44:56;98043.75;;;-6.80;69.08
56142;BME280;42018;48.588;10.836;2022-12-18T00:47:41;98050.41;;;-6.99;68.34
56142;BME280;42018;48.588;10.836;2022-12-18T00:50:27;98050.81;;;-6.82;68.52
56142;BME280;42018;48.588;10.836;2022-12-18T00:53:12;98040.00;;;-6.76;67.98
56142;BME280;42018;48.588;10.836;2022-12-18T00:55:58;98046.34;;;-6.80;67.95
56142;BME280;42018;48.588;10.836;2022-12-18T00:58:43;98049.81;;;-6.70;67.63
56142;BME280;42018;48.588;10.836;2022-12-18T01:01:28;98058.69;;;-6.63;67.42
56142;BME280;42018;48.588;10.836;2022-12-18T01:04:14;98056.88;;;-6.72;67.82
56142;BME280;42018;48.588;10.836;2022-12-18T01:06:59;98062.88;;;-6.83;69.95
56142;BME280;42018;48.588;10.836;2022-12-18T01:09:45;98069.69;;;-6.61;68.86
56142;BME280;42018;48.588;10.836;2022-12-18T01:12:30;98068.63;;;-6.58;68.23
56142;BME280;42018;48.588;10.836;2022-12-18T01:15:16;98067.16;;;-6.51;68.27
56142;BME280;42018;48.588;10.836;2022-12-18T01:18:02;98066.84;;;-6.79;68.29
56142;BME280;42018;48.588;10.836;2022-12-18T01:20:47;98070.47;;;-6.49;68.76
56142;BME280;42018;48.588;10.836;2022-12-18T01:23:33;98071.84;;;-6.45;68.57
56142;BME280;42018;48.588;10.836;2022-12-18T01:26:18;98069.81;;;-6.41;68.72
56142;BME280;42018;48.588;10.836;2022-12-18T01:29:04;98072.28;;;-6.40;68.52
56142;BME280;42018;48.588;10.836;2022-12-18T01:31:49;98080.88;;;-6.30;68.23
56142;BME280;42018;48.588;10.836;2022-12-18T01:34:36;98080.28;;;-6.22;68.63
56142;BME280;42018;48.588;10.836;2022-12-18T01:37:21;98070.38;;;-6.38;69.20
56142;BME280;42018;48.588;10.836;2022-12-18T01:40:07;98066.69;;;-6.45;69.91
56142;BME280;42018;48.588;10.836;2022-12-18T01:42:53;98069.81;;;-6.62;70.55
56142;BME280;42018;48.588;10.836;2022-12-18T01:45:39;98075.53;;;-6.91;72.90
56142;BME280;42018;48.588;10.836;2022-12-18T01:48:24;98092.00;;;-7.03;73.72
56142;BME280;42018;48.588;10.836;2022-12-18T01:51:10;98089.75;;;-6.96;73.69
56142;BME280;42018;48.588;10.836;2022-12-18T01:53:57;98091.84;;;-7.02;73.77
56142;BME280;42018;48.588;10.836;2022-12-18T01:56:44;98085.56;;;-7.09;74.10
56142;BME280;42018;48.588;10.836;2022-12-18T01:59:30;98093.69;;;-7.25;75.50
56142;BME280;42018;48.588;10.836;2022-12-18T02:02:17;98091.31;;;-7.16;75.27
56142;BME280;42018;48.588;10.836;2022-12-18T02:05:03;98078.50;;;-6.95;74.99
56142;BME280;42018;48.588;10.836;2022-12-18T02:08:06;98088.38;;;-6.80;74.50
56142;BME280;42018;48.588;10.836;2022-12-18T02:26:16;98075.16;;;-6.75;74.12
56142;BME280;42018;48.588;10.836;2022-12-18T02:29:09;98078.81;;;-6.89;74.87
56142;BME280;42018;48.588;10.836;2022-12-18T02:31:59;98089.34;;;-6.81;74.75
56142;BME280;42018;48.588;10.836;2022-12-18T02:34:46;98078.53;;;-6.75;74.98
56142;BME280;42018;48.588;10.836;2022-12-18T02:37:33;98084.75;;;-6.77;75.25
56142;BME280;42018;48.588;10.836;2022-12-18T02:40:20;98077.91;;;-6.99;75.74
56142;BME280;42018;48.588;10.836;2022-12-18T02:43:12;98066.31;;;-6.93;76.45
56142;BME280;42018;48.588;10.836;2022-12-18T02:45:59;98079.22;;;-6.72;75.71
56142;BME280;42018;48.588;10.836;2022-12-18T02:48:46;98073.09;;;-6.60;75.31
56142;BME280;42018;48.588;10.836;2022-12-18T02:51:47;98078.19;;;-6.49;74.81
56142;BME280;42018;48.588;10.836;2022-12-18T03:04:06;98094.94;;;-6.43;73.76
56142;BME280;42018;48.588;10.836;2022-12-18T03:06:58;98099.78;;;-6.29;73.87
56142;BME280;42018;48.588;10.836;2022-12-18T03:09:48;98087.44;;;-6.25;73.67
56142;BME280;42018;48.588;10.836;2022-12-18T03:12:45;98076.88;;;-6.22;73.58
56142;BME280;42018;48.588;10.836;2022-12-18T03:15:42;98074.03;;;-6.19;73.07
56142;BME280;42018;48.588;10.836;2022-12-18T03:18:41;98070.06;;;-6.23;73.18
56142;BME280;42018;48.588;10.836;2022-12-18T03:21:35;98076.34;;;-6.16;73.47
56142;BME280;42018;48.588;10.836;2022-12-18T03:24:24;98086.34;;;-6.02;72.71
56142;BME280;42018;48.588;10.836;2022-12-18T03:27:13;98095.03;;;-6.03;71.85
56142;BME280;42018;48.588;10.836;2022-12-18T03:30:03;98095.59;;;-5.99;72.19
56142;BME280;42018;48.588;10.836;2022-12-18T03:33:00;98095.75;;;-5.91;72.51
56142;BME280;42018;48.588;10.836;2022-12-18T03:35:47;98085.72;;;-5.85;72.09
56142;BME280;42018;48.588;10.836;2022-12-18T03:38:33;98094.53;;;-5.97;72.42
56142;BME280;42018;48.588;10.836;2022-12-18T03:41:47;98087.19;;;-5.92;72.39
56142;BME280;42018;48.588;10.836;2022-12-18T03:44:54;98080.53;;;-5.94;72.73
56142;BME280;42018;48.588;10.836;2022-12-18T03:50:37;98095.81;;;-5.82;72.21
56142;BME280;42018;48.588;10.836;2022-12-18T03:53:37;98089.00;;;-5.83;71.82
56142;BME280;42018;48.588;10.836;2022-12-18T03:56:25;98084.41;;;-5.79;71.37
56142;BME280;42018;48.588;10.836;2022-12-18T03:59:12;98077.38;;;-5.67;71.72
56142;BME280;42018;48.588;10.836;2022-12-18T04:02:00;98081.09;;;-5.60;70.72
56142;BME280;42018;48.588;10.836;2022-12-18T04:04:47;98072.94;;;-5.65;71.48
56142;BME280;42018;48.588;10.836;2022-12-18T04:07:35;98083.91;;;-5.63;71.74
56142;BME280;42018;48.588;10.836;2022-12-18T04:10:21;98067.75;;;-5.65;71.51
56142;BME280;42018;48.588;10.836;2022-12-18T04:13:06;98067.31;;;-5.70;71.42
56142;BME280;42018;48.588;10.836;2022-12-18T04:15:52;98076.88;;;-5.61;71.70
56142;BME280;42018;48.588;10.836;2022-12-18T04:18:37;98085.59;;;-5.53;71.43
56142;BME280;42018;48.588;10.836;2022-12-18T04:21:23;98098.09;;;-5.58;71.85
56142;BME280;42018;48.588;10.836;2022-12-18T04:24:08;98097.22;;;-5.68;72.24
56142;BME280;42018;48.588;10.836;2022-12-18T04:26:53;98097.28;;;-5.58;72.10
56142;BME280;42018;48.588;10.836;2022-12-18T04:29:39;98109.34;;;-5.59;72.35
56142;BME280;42018;48.588;10.836;2022-12-18T04:32:25;98110.81;;;-5.66;71.57
56142;BME280;42018;48.588;10.836;2022-12-18T04:35:10;98121.47;;;-5.49;71.98
56142;BME280;42018;48.588;10.836;2022-12-18T04:37:57;98112.38;;;-5.54;72.22
56142;BME280;42018;48.588;10.836;2022-12-18T04:40:42;98108.81;;;-5.53;72.10
56142;BME280;42018;48.588;10.836;2022-12-18T04:43:28;98110.09;;;-5.47;72.16
56142;BME280;42018;48.588;10.836;2022-12-18T04:46:13;98122.28;;;-5.49;72.35
56142;BME280;42018;48.588;10.836;2022-12-18T04:48:59;98128.16;;;-5.47;71.48
56142;BME280;42018;48.588;10.836;2022-12-18T04:51:44;98115.00;;;-5.44;72.14
56142;BME280;42018;48.588;10.836;2022-12-18T04:54:29;98122.75;;;-5.44;71.66
56142;BME280;42018;48.588;10.836;2022-12-18T04:57:15;98113.53;;;-5.37;71.70
56142;BME280;42018;48.588;10.836;2022-12-18T05:00:00;98115.81;;;-5.43;71.50
56142;BME280;42018;48.588;10.836;2022-12-18T05:02:46;98113.09;;;-5.42;71.48
56142;BME280;42018;48.588;10.836;2022-12-18T05:05:31;98105.13;;;-5.60;72.52
56142;BME280;42018;48.588;10.836;2022-12-18T05:08:17;98104.97;;;-5.68;73.05
56142;BME280;42018;48.588;10.836;2022-12-18T05:11:05;98108.50;;;-5.69;73.54
56142;BME280;42018;48.588;10.836;2022-12-18T05:13:51;98115.25;;;-5.47;72.79
56142;BME280;42018;48.588;10.836;2022-12-18T05:16:36;98123.00;;;-5.47;72.19
56142;BME280;42018;48.588;10.836;2022-12-18T05:19:21;98116.47;;;-5.51;72.81
56142;BME280;42018;48.588;10.836;2022-12-18T05:22:07;98117.94;;;-5.48;73.06
56142;BME280;42018;48.588;10.836;2022-12-18T05:24:53;98119.25;;;-5.33;72.42
56142;BME280;42018;48.588;10.836;2022-12-18T05:27:38;98123.25;;;-5.50;73.32
56142;BME280;42018;48.588;10.836;2022-12-18T05:30:23;98128.72;;;-5.43;72.79
56142;BME280;42018;48.588;10.836;2022-12-18T05:33:09;98128.03;;;-5.45;73.08
56142;BME280;42018;48.588;10.836;2022-12-18T05:35:56;98129.78;;;-5.46;73.21
56142;BME280;42018;48.588;10.836;2022-12-18T05:38:42;98127.75;;;-5.42;73.73
56142;BME280;42018;48.588;10.836;2022-12-18T05:41:27;98114.03;;;-5.43;73.63
56142;BME280;42018;48.588;10.836;2022-12-18T05:44:13;98115.41;;;-5.39;73.89
56142;BME280;42018;48.588;10.836;2022-12-18T05:46:59;98121.28;;;-5.37;73.40
56142;BME280;42018;48.588;10.836;2022-12-18T05:49:44;98121.81;;;-5.33;73.73
56142;BME280;42018;48.588;10.836;2022-12-18T05:52:30;98120.47;;;-5.27;73.61
56142;BME280;42018;48.588;10.836;2022-12-18T05:55:15;98122.09;;;-5.26;73.26
56142;BME280;42018;48.588;10.836;2022-12-18T05:58:02;98136.63;;;-5.35;73.43
56142;BME280;42018;48.588;10.836;2022-12-18T06:00:47;98140.09;;;-5.15;73.23
56142;BME280;42018;48.588;10.836;2022-12-18T06:03:33;98134.50;;;-5.20;73.26
56142;BME280;42018;48.588;10.836;2022-12-18T06:06:27;98133.81;;;-5.22;73.17
56142;BME280;42018;48.588;10.836;2022-12-18T06:09:13;98125.53;;;-5.16;73.30
56142;BME280;42018;48.588;10.836;2022-12-18T06:11:59;98134.38;;;-5.09;73.23
56142;BME280;42018;48.588;10.836;2022-12-18T06:14:44;98147.84;;;-5.15;73.41
56142;BME280;42018;48.588;10.836;2022-12-18T06:17:30;98140.66;;;-5.12;73.22
56142;BME280;42018;48.588;10.836;2022-12-18T06:20:16;98145.28;;;-5.06;72.70
56142;BME280;42018;48.588;10.836;2022-12-18T06:23:02;98146.78;;;-5.03;72.86
56142;BME280;42018;48.588;10.836;2022-12-18T06:25:47;98144.06;;;-5.11;73.24
56142;BME280;42018;48.588;10.836;2022-12-18T06:28:32;98145.94;;;-5.13;73.96
56142;BME280;42018;48.588;10.836;2022-12-18T06:31:18;98145.53;;;-5.18;73.79
56142;BME280;42018;48.588;10.836;2022-12-18T06:34:04;98154.50;;;-5.22;74.38
56142;BME280;42018;48.588;10.836;2022-12-18T06:36:49;98147.56;;;-5.22;74.50
56142;BME280;42018;48.588;10.836;2022-12-18T06:39:35;98154.78;;;-5.16;74.41
56142;BME280;42018;48.588;10.836;2022-12-18T06:42:20;98149.47;;;-5.14;74.66
56142;BME280;42018;48.588;10.836;2022-12-18T06:45:06;98159.59;;;-5.01;74.88
56142;BME280;42018;48.588;10.836;2022-12-18T06:47:51;98157.97;;;-4.93;74.41
56142;BME280;42018;48.588;10.836;2022-12-18T06:50:37;98161.09;;;-4.89;74.01
56142;BME280;42018;48.588;10.836;2022-12-18T06:53:22;98163.66;;;-4.99;74.13
56142;BME280;42018;48.588;10.836;2022-12-18T06:56:08;98158.19;;;-5.06;74.48
56142;BME280;42018;48.588;10.836;2022-12-18T06:58:53;98151.84;;;-5.01;74.99
56142;BME280;42018;48.588;10.836;2022-12-18T07:01:38;98158.09;;;-5.04;74.83
56142;BME280;42018;48.588;10.836;2022-12-18T07:04:30;98154.69;;;-5.04;75.13
56142;BME280;42018;48.588;10.836;2022-12-18T07:07:16;98159.72;;;-5.03;75.35
56142;BME280;42018;48.588;10.836;2022-12-18T07:10:02;98158.59;;;-5.10;75.56
56142;BME280;42018;48.588;10.836;2022-12-18T07:12:47;98162.13;;;-5.11;75.85
56142;BME280;42018;48.588;10.836;2022-12-18T07:15:32;98164.56;;;-5.19;76.70
56142;BME280;42018;48.588;10.836;2022-12-18T07:18:18;98162.69;;;-5.08;76.15
56142;BME280;42018;48.588;10.836;2022-12-18T07:21:08;98168.00;;;-4.99;76.16
56142;BME280;42018;48.588;10.836;2022-12-18T07:23:54;98176.31;;;-4.96;76.03
56142;BME280;42018;48.588;10.836;2022-12-18T07:26:39;98178.66;;;-4.93;75.83
56142;BME280;42018;48.588;10.836;2022-12-18T07:29:24;98180.69;;;-4.96;76.19
56142;BME280;42018;48.588;10.836;2022-12-18T07:32:10;98179.50;;;-4.83;76.13
56142;BME280;42018;48.588;10.836;2022-12-18T07:34:56;98178.50;;;-4.91;76.17
56142;BME280;42018;48.588;10.836;2022-12-18T07:37:41;98189.13;;;-4.85;76.11
56142;BME280;42018;48.588;10.836;2022-12-18T07:40:27;98187.25;;;-4.83;76.34
56142;BME280;42018;48.588;10.836;2022-12-18T07:43:12;98185.75;;;-4.75;76.16
56142;BME280;42018;48.588;10.836;2022-12-18T07:45:58;98180.47;;;-4.64;75.83
56142;BME280;42018;48.588;10.836;2022-12-18T07:48:44;98194.38;;;-4.65;76.18
56142;BME280;42018;48.588;10.836;2022-12-18T07:51:29;98205.81;;;-4.58;75.93
56142;BME280;42018;48.588;10.836;2022-12-18T07:54:15;98203.06;;;-4.76;76.74
56142;BME280;42018;48.588;10.836;2022-12-18T07:57:00;98204.28;;;-4.70;77.06
56142;BME280;42018;48.588;10.836;2022-12-18T07:59:45;98218.84;;;-4.69;76.68
56142;BME280;42018;48.588;10.836;2022-12-18T08:02:31;98218.19;;;-4.62;76.88
56142;BME280;42018;48.588;10.836;2022-12-18T08:05:17;98213.56;;;-4.58;76.28
56142;BME280;42018;48.588;10.836;2022-12-18T08:08:02;98216.84;;;-4.46;76.22
56142;BME280;42018;48.588;10.836;2022-12-18T08:10:47;98227.34;;;-4.38;76.13
56142;BME280;42018;48.588;10.836;2022-12-18T08:13:33;98220.00;;;-4.33;75.76
56142;BME280;42018;48.588;10.836;2022-12-18T08:16:18;98219.88;;;-4.12;75.32
56142;BME280;42018;48.588;10.836;2022-12-18T08:19:04;98223.81;;;-4.37;75.56
56142;BME280;42018;48.588;10.836;2022-12-18T08:21:50;98217.00;;;-4.28;75.48
56142;BME280;42018;48.588;10.836;2022-12-18T08:24:35;98211.25;;;-4.61;76.96
56142;BME280;42018;48.588;10.836;2022-12-18T08:27:20;98222.31;;;-4.40;76.30
56142;BME280;42018;48.588;10.836;2022-12-18T08:30:06;98227.34;;;-4.88;78.47
56142;BME280;42018;48.588;10.836;2022-12-18T08:32:52;98219.66;;;-4.59;77.14
56142;BME280;42018;48.588;10.836;2022-12-18T08:35:38;98219.97;;;-4.52;76.76
56142;BME280;42018;48.588;10.836;2022-12-18T08:38:23;98225.41;;;-4.46;76.11
56142;BME280;42018;48.588;10.836;2022-12-18T08:41:10;98211.47;;;-4.74;76.74
56142;BME280;42018;48.588;10.836;2022-12-18T08:43:56;98209.81;;;-4.85;77.84
56142;BME280;42018;48.588;10.836;2022-12-18T08:47:00;98212.84;;;-4.70;77.26
56142;BME280;42018;48.588;10.836;2022-12-18T08:49:45;98202.66;;;-4.71;77.23
56142;BME280;42018;48.588;10.836;2022-12-18T08:52:32;98201.94;;;-4.73;77.96
56142;BME280;42018;48.588;10.836;2022-12-18T08:55:17;98199.91;;;-4.70;77.45
56142;BME280;42018;48.588;10.836;2022-12-18T08:58:03;98209.78;;;-4.44;76.71
56142;BME280;42018;48.588;10.836;2022-12-18T09:00:48;98207.19;;;-4.54;77.08
56142;BME280;42018;48.588;10.836;2022-12-18T09:03:33;98212.59;;;-4.67;77.06
56142;BME280;42018;48.588;10.836;2022-12-18T09:06:20;98220.97;;;-4.94;79.28
56142;BME280;42018;48.588;10.836;2022-12-18T09:09:06;98214.75;;;-4.72;78.11
56142;BME280;42018;48.588;10.836;2022-12-18T09:11:52;98221.06;;;-4.55;77.65
56142;BME280;42018;48.588;10.836;2022-12-18T09:14:37;98222.63;;;-4.73;78.31
56142;BME280;42018;48.588;10.836;2022-12-18T09:17:22;98220.75;;;-4.71;78.08
56142;BME280;42018;48.588;10.836;2022-12-18T09:20:08;98215.88;;;-4.65;77.57
56142;BME280;42018;48.588;10.836;2022-12-18T09:22:54;98216.94;;;-4.67;77.77
56142;BME280;42018;48.588;10.836;2022-12-18T09:25:39;98205.81;;;-4.58;77.36
56142;BME280;42018;48.588;10.836;2022-12-18T09:28:25;98202.13;;;-4.46;77.79
56142;BME280;42018;48.588;10.836;2022-12-18T09:31:12;98199.84;;;-4.29;76.93
56142;BME280;42018;48.588;10.836;2022-12-18T09:33:57;98205.72;;;-4.08;76.36
56142;BME280;42018;48.588;10.836;2022-12-18T09:36:43;98200.13;;;-4.03;75.50
56142;BME280;42018;48.588;10.836;2022-12-18T09:39:28;98208.03;;;-4.05;75.66
56142;BME280;42018;48.588;10.836;2022-12-18T09:42:21;98213.88;;;-3.93;75.22
56142;BME280;42018;48.588;10.836;2022-12-18T09:45:12;98199.69;;;-3.99;74.56
56142;BME280;42018;48.588;10.836;2022-12-18T09:48:00;98191.50;;;-3.85;74.37
56142;BME280;42018;48.588;10.836;2022-12-18T09:50:46;98197.91;;;-3.79;74.26
56142;BME280;42018;48.588;10.836;2022-12-18T09:53:35;98205.44;;;-4.15;74.61
56142;BME280;42018;48.588;10.836;2022-12-18T09:56:25;98198.91;;;-4.19;74.70
56142;BME280;42018;48.588;10.836;2022-12-18T09:59:37;98203.75;;;-4.45;76.14
56142;BME280;42018;48.588;10.836;2022-12-18T10:02:26;98201.47;;;-4.28;76.22
56142;BME280;42018;48.588;10.836;2022-12-18T10:05:15;98194.66;;;-4.10;75.30
56142;BME280;42018;48.588;10.836;2022-12-18T10:08:05;98191.53;;;-4.14;74.87
56142;BME280;42018;48.588;10.836;2022-12-18T10:10:59;98174.53;;;-4.16;74.58
56142;BME280;42018;48.588;10.836;2022-12-18T10:13:52;98174.22;;;-4.13;74.64
56142;BME280;42018;48.588;10.836;2022-12-18T10:20:05;98171.25;;;-4.18;74.45
56142;BME280;42018;48.588;10.836;2022-12-18T10:26:09;98184.56;;;-4.52;74.97
56142;BME280;42018;48.588;10.836;2022-12-18T10:28:56;98196.03;;;-5.35;78.43
56142;BME280;42018;48.588;10.836;2022-12-18T10:31:42;98184.16;;;-5.47;79.71
56142;BME280;42018;48.588;10.836;2022-12-18T10:34:28;98207.84;;;-5.63;80.82
56142;BME280;42018;48.588;10.836;2022-12-18T10:37:22;98203.16;;;-5.69;81.12
56142;BME280;42018;48.588;10.836;2022-12-18T10:40:13;98206.56;;;-5.48;80.93
56142;BME280;42018;48.588;10.836;2022-12-18T10:43:13;98213.13;;;-5.44;81.07
56142;BME280;42018;48.588;10.836;2022-12-18T10:48:55;98224.81;;;-5.09;79.52
56142;BME280;42018;48.588;10.836;2022-12-18T10:51:42;98223.38;;;-4.62;77.35
56142;BME280;42018;48.588;10.836;2022-12-18T10:54:28;98206.50;;;-4.46;76.34
56142;BME280;42018;48.588;10.836;2022-12-18T10:57:17;98220.84;;;-4.23;75.71
56142;BME280;42018;48.588;10.836;2022-12-18T11:00:26;98218.25;;;-4.03;74.80
56142;BME280;42018;48.588;10.836;2022-12-18T11:06:22;98206.66;;;-3.90;74.05
56142;BME280;42018;48.588;10.836;2022-12-18T11:09:20;98205.00;;;-4.49;75.14
56142;BME280;42018;48.588;10.836;2022-12-18T11:15:00;98193.91;;;-4.90;77.55
56142;BME280;42018;48.588;10.836;2022-12-18T11:17:48;98202.31;;;-4.88;77.95
56142;BME280;42018;48.588;10.836;2022-12-18T11:20:35;98188.03;;;-4.92;78.10
56142;BME280;42018;48.588;10.836;2022-12-18T11:23:22;98194.47;;;-5.17;78.61
56142;BME280;42018;48.588;10.836;2022-12-18T11:26:08;98186.34;;;-5.02;79.01
56142;BME280;42018;48.588;10.836;2022-12-18T11:29:08;98186.34;;;-4.43;76.38
56142;BME280;42018;48.588;10.836;2022-12-18T11:38:27;98184.59;;;-3.94;74.62
56142;BME280;42018;48.588;10.836;2022-12-18T11:41:23;98184.28;;;-3.71;73.67
56142;BME280;42018;48.588;10.836;2022-12-18T11:44:41;98171.41;;;-3.53;72.96
56142;BME280;42018;48.588;10.836;2022-12-18T11:50:25;98164.81;;;-3.75;73.22
56142;BME280;42018;48.588;10.836;2022-12-18T11:53:12;98165.97;;;-3.60;72.54
56142;BME280;42018;48.588;10.836;2022-12-18T11:56:32;98168.19;;;-3.65;72.33
56142;BME280;42018;48.588;10.836;2022-12-18T12:08:47;98146.25;;;-3.71;72.76
56142;BME280;42018;48.588;10.836;2022-12-18T12:15:03;98160.06;;;-3.90;73.28
56142;BME280;42018;48.588;10.836;2022-12-18T12:18:03;98165.22;;;-3.80;73.11
56142;BME280;42018;48.588;10.836;2022-12-18T12:29:39;98160.63;;;-4.05;74.56
56142;BME280;42018;48.588;10.836;2022-12-18T12:36:41;98144.34;;;-3.78;73.29
56142;BME280;42018;48.588;10.836;2022-12-18T12:38:58;98145.50;;;-4.10;73.95
56142;BME280;42018;48.588;10.836;2022-12-18T12:41:46;98139.09;;;-4.64;76.18
56142;BME280;42018;48.588;10.836;2022-12-18T12:44:55;98136.75;;;-4.96;77.36
56142;BME280;42018;48.588;10.836;2022-12-18T12:47:43;98144.00;;;-5.21;77.78
56142;BME280;42018;48.588;10.836;2022-12-18T12:50:33;98146.97;;;-5.35;78.61
56142;BME280;42018;48.588;10.836;2022-12-18T12:53:39;98135.50;;;-5.02;78.26
56142;BME280;42018;48.588;10.836;2022-12-18T13:05:26;98142.38;;;-4.52;74.92
56142;BME280;42018;48.588;10.836;2022-12-18T13:08:28;98149.53;;;-5.35;78.36
56142;BME280;42018;48.588;10.836;2022-12-18T13:11:32;98139.91;;;-4.73;76.69
56142;BME280;42018;48.588;10.836;2022-12-18T13:14:39;98132.44;;;-4.76;76.44
56142;BME280;42018;48.588;10.836;2022-12-18T13:17:29;98140.63;;;-5.21;78.11
56142;BME280;42018;48.588;10.836;2022-12-18T13:20:15;98140.63;;;-5.21;78.44
56142;BME280;42018;48.588;10.836;2022-12-18T13:23:01;98133.53;;;-5.29;78.65
56142;BME280;42018;48.588;10.836;2022-12-18T13:28:53;98146.22;;;-5.07;78.02
56142;BME280;42018;48.588;10.836;2022-12-18T13:34:26;98139.75;;;-5.32;78.44
56142;BME280;42018;48.588;10.836;2022-12-18T13:43:37;98154.69;;;-5.35;78.43
56142;BME280;42018;48.588;10.836;2022-12-18T13:46:43;98154.06;;;-5.27;78.75
56142;BME280;42018;48.588;10.836;2022-12-18T13:49:40;98147.38;;;-5.30;78.66
56142;BME280;42018;48.588;10.836;2022-12-18T13:52:28;98150.78;;;-5.60;79.73
56142;BME280;42018;48.588;10.836;2022-12-18T13:55:19;98146.75;;;-5.53;79.79
56142;BME280;42018;48.588;10.836;2022-12-18T13:58:06;98138.38;;;-5.66;80.15
56142;BME280;42018;48.588;10.836;2022-12-18T14:00:51;98137.22;;;-5.53;80.31
56142;BME280;42018;48.588;10.836;2022-12-18T14:03:37;98139.97;;;-5.54;80.61
56142;BME280;42018;48.588;10.836;2022-12-18T14:06:22;98143.31;;;-5.33;78.79
56142;BME280;42018;48.588;10.836;2022-12-18T14:09:13;98143.22;;;-5.52;80.03
56142;BME280;42018;48.588;10.836;2022-12-18T14:11:59;98148.81;;;-5.47;79.61
56142;BME280;42018;48.588;10.836;2022-12-18T14:15:06;98145.81;;;-5.73;80.10
56142;BME280;42018;48.588;10.836;2022-12-18T14:20:45;98148.72;;;-5.97;81.63
56142;BME280;42018;48.588;10.836;2022-12-18T14:23:49;98140.03;;;-5.96;82.20
56142;BME280;42018;48.588;10.836;2022-12-18T14:26:49;98139.97;;;-6.06;81.98
56142;BME280;42018;48.588;10.836;2022-12-18T14:29:34;98146.00;;;-6.16;83.09
56142;BME280;42018;48.588;10.836;2022-12-18T14:32:20;98154.25;;;-6.02;81.87
56142;BME280;42018;48.588;10.836;2022-12-18T14:35:13;98147.34;;;-6.01;81.97
56142;BME280;42018;48.588;10.836;2022-12-18T14:38:20;98153.88;;;-6.18;82.59
56142;BME280;42018;48.588;10.836;2022-12-18T14:41:15;98149.28;;;-6.14;82.52
56142;BME280;42018;48.588;10.836;2022-12-18T14:44:05;98155.09;;;-6.01;82.13
56142;BME280;42018;48.588;10.836;2022-12-18T14:46:54;98160.56;;;-6.15;82.41
56142;BME280;42018;48.588;10.836;2022-12-18T14:49:41;98151.44;;;-5.89;81.19
56142;BME280;42018;48.588;10.836;2022-12-18T14:52:29;98153.06;;;-5.97;81.03
56142;BME280;42018;48.588;10.836;2022-12-18T14:55:17;98154.88;;;-6.09;81.88
56142;BME280;42018;48.588;10.836;2022-12-18T14:58:03;98147.84;;;-6.07;82.06
56142;BME280;42018;48.588;10.836;2022-12-18T15:00:49;98154.38;;;-6.03;82.11
56142;BME280;42018;48.588;10.836;2022-12-18T15:03:34;98151.09;;;-6.05;81.92
56142;BME280;42018;48.588;10.836;2022-12-18T15:06:27;98158.47;;;-6.00;81.66
56142;BME280;42018;48.588;10.836;2022-12-18T15:09:25;98162.63;;;-6.09;82.04
56142;BME280;42018;48.588;10.836;2022-12-18T15:12:42;98156.50;;;-6.29;83.10
56142;BME280;42018;48.588;10.836;2022-12-18T15:18:20;98147.22;;;-5.69;80.68
56142;BME280;42018;48.588;10.836;2022-12-18T15:21:11;98143.56;;;-5.87;80.90
56142;BME280;42018;48.588;10.836;2022-12-18T15:24:01;98136.94;;;-5.59;80.42
56142;BME280;42018;48.588;10.836;2022-12-18T15:26:46;98131.63;;;-5.88;81.16
56142;BME280;42018;48.588;10.836;2022-12-18T15:29:32;98142.41;;;-5.83;81.56
56142;BME280;42018;48.588;10.836;2022-12-18T15:32:20;98144.88;;;-5.51;80.03
56142;BME280;42018;48.588;10.836;2022-12-18T15:35:23;98139.25;;;-5.56;80.28
56142;BME280;42018;48.588;10.836;2022-12-18T15:38:08;98135.13;;;-5.99;81.15
56142;BME280;42018;48.588;10.836;2022-12-18T15:40:54;98135.94;;;-5.68;80.09
56142;BME280;42018;48.588;10.836;2022-12-18T15:43:40;98145.97;;;-5.74;79.91
56142;BME280;42018;48.588;10.836;2022-12-18T15:46:25;98152.34;;;-6.20;81.91
56142;BME280;42018;48.588;10.836;2022-12-18T15:49:11;98160.63;;;-6.38;83.05
56142;BME280;42018;48.588;10.836;2022-12-18T15:51:59;98169.72;;;-6.22;83.26
56142;BME280;42018;48.588;10.836;2022-12-18T15:54:46;98169.88;;;-6.35;83.60
56142;BME280;42018;48.588;10.836;2022-12-18T15:57:50;98165.78;;;-6.38;83.59
56142;BME280;42018;48.588;10.836;2022-12-18T16:00:38;98161.63;;;-6.50;84.05
56142;BME280;42018;48.588;10.836;2022-12-18T16:03:23;98159.16;;;-6.52;84.67
56142;BME280;42018;48.588;10.836;2022-12-18T16:06:09;98160.19;;;-6.43;84.26
56142;BME280;42018;48.588;10.836;2022-12-18T16:08:55;98158.88;;;-6.37;84.10
56142;BME280;42018;48.588;10.836;2022-12-18T16:11:42;98167.41;;;-6.37;83.90
56142;BME280;42018;48.588;10.836;2022-12-18T16:14:31;98162.75;;;-6.11;83.29
56142;BME280;42018;48.588;10.836;2022-12-18T16:17:17;98152.47;;;-6.43;84.18
56142;BME280;42018;48.588;10.836;2022-12-18T16:20:02;98154.19;;;-6.11;83.60
56142;BME280;42018;48.588;10.836;2022-12-18T16:22:48;98143.13;;;-5.71;81.20
56142;BME280;42018;48.588;10.836;2022-12-18T16:25:34;98145.94;;;-6.05;81.99